Capitol Logistics 316


KRFD
Chicago/Rockford International Airport
Rockford, Illinois, US
PANC
Ted Stevens Anchorage International Airport
Anchorage, Alaska, US

Route Details

Aircraft Information
Primary: Boeing 767-300BDSF
Backup: Not Available
Route Data
Distance: 2468nm
Sched. Duration: 6h 00m
Avg. Duration: 6h 20m (+21m)
Times Flown: 11
Recm'd Route: ODI J36 GEP MOT J483 VLN J475 YWV NCA11 REMBY WITTI4
Planned Altitude: 34,000ft
Origin Wx: KRFD 071554Z 20004KT 10SM BKN022 BKN060 18/15 A2977 RMK AO2 SLP080 T01830150
Dest. Wx: PANC 071553Z 06003KT 10SM CLR M07/M14 A3011 RMK AO2 SLP199 T10721144
Notes:

Financial History
Total Freight: 994,986lbs
Average Load: 90,453lbs/flt
Fuel Used: 782,623lbs
Avg. Fuel Used: 71,148lbs/flt
Fuel Expense: $558,824
Avg. Fuel Expense: $50,802
Avg. Fuel Cost: $0.71/lbs
Total Gross Income: $2,023,738
Pilot Pay: $1,759
Total Expenses: $221,674
Total Revenue: $1,226,793
Average Revenue: $183,976.19